createdAt,value
2019-04-24T00:00:29.666Z,11.70
2019-04-24T00:03:09.022Z,11.70
2019-04-24T00:06:06.916Z,11.70
2019-04-24T00:08:29.481Z,11.70
2019-04-24T00:11:27.135Z,11.60
2019-04-24T00:13:43.563Z,11.70
2019-04-24T00:21:36.473Z,11.70
2019-04-24T00:26:47.542Z,11.70
2019-04-24T00:29:24.375Z,11.70
2019-04-24T00:31:49.646Z,11.60
2019-04-24T00:34:32.765Z,11.60
2019-04-24T00:36:58.779Z,11.60
2019-04-24T00:39:27.521Z,11.50
2019-04-24T00:47:08.943Z,11.50
2019-04-24T00:52:16.350Z,11.40
2019-04-24T00:54:52.624Z,11.50
2019-04-24T00:57:37.899Z,11.50
2019-04-24T00:59:52.098Z,11.50
2019-04-24T01:05:32.605Z,11.40
2019-04-24T01:10:45.549Z,11.30
2019-04-24T01:13:43.046Z,11.30
2019-04-24T01:16:08.651Z,11.40
2019-04-24T01:18:29.533Z,11.30
2019-04-24T01:21:00.033Z,11.30
2019-04-24T01:23:34.221Z,11.30
2019-04-24T01:26:10.202Z,11.30
2019-04-24T01:31:26.168Z,11.20
2019-04-24T01:33:56.279Z,11.30
2019-04-24T01:36:38.697Z,11.20
2019-04-24T01:39:36.497Z,11.10
2019-04-24T01:42:09.876Z,11.10
2019-04-24T01:44:32.176Z,11.00
2019-04-24T01:47:06.442Z,11.00
2019-04-24T01:49:44.182Z,11.10
2019-04-24T01:52:31.798Z,11.10
2019-04-24T01:54:43.193Z,11.10
2019-04-24T01:57:24.510Z,11.10
2019-04-24T01:59:48.503Z,11.10
2019-04-24T02:10:29.816Z,11.00
2019-04-24T02:15:25.955Z,11.00
2019-04-24T02:17:51.727Z,11.00
2019-04-24T02:20:37.484Z,11.00
2019-04-24T02:36:31.972Z,10.80
2019-04-24T02:41:44.539Z,10.70
2019-04-24T02:44:24.995Z,10.70
2019-04-24T02:46:41.059Z,10.70
2019-04-24T02:54:41.068Z,10.60
2019-04-24T02:57:10.219Z,10.60
2019-04-24T02:59:22.786Z,10.60
2019-04-24T03:04:40.047Z,10.60
2019-04-24T03:07:32.950Z,10.60
2019-04-24T03:17:44.297Z,10.50
2019-04-24T03:20:12.533Z,10.50
2019-04-24T03:22:55.958Z,10.40
2019-04-24T03:30:44.064Z,10.30
2019-04-24T03:41:45.534Z,10.10
2019-04-24T03:48:49.511Z,10.30
2019-04-24T03:59:19.065Z,10.10
2019-04-24T04:04:31.788Z,10.10
2019-04-24T04:12:16.877Z,10.20
2019-04-24T04:19:48.863Z,10.20
2019-04-24T04:22:36.784Z,10.20
2019-04-24T04:25:02.735Z,10.20
2019-04-24T04:27:47.571Z,10.20
2019-04-24T04:30:40.477Z,10.20
2019-04-24T04:33:14.820Z,10.30
2019-04-24T04:35:59.372Z,10.20
2019-04-24T04:43:39.267Z,10.30
2019-04-24T05:01:59.962Z,10.60
2019-04-24T05:04:41.280Z,10.70
2019-04-24T05:09:55.497Z,10.90
2019-04-24T05:12:06.365Z,10.90
2019-04-24T05:15:00.652Z,11.00
2019-04-24T05:19:38.980Z,11.20
2019-04-24T05:27:39.329Z,11.50
2019-04-24T05:30:16.293Z,11.80
2019-04-24T05:33:17.379Z,12.10
2019-04-24T05:35:40.236Z,12.40
2019-04-24T05:38:10.201Z,12.60
2019-04-24T05:43:27.074Z,12.90
2019-04-24T05:46:00.446Z,13.10
2019-04-24T05:48:39.604Z,13.30
2019-04-24T05:51:04.273Z,13.40
2019-04-24T05:53:41.177Z,13.50
2019-04-24T05:56:18.533Z,13.70
2019-04-24T05:58:47.581Z,13.90
2019-04-24T06:01:17.831Z,14.10
2019-04-24T06:08:59.007Z,14.30
2019-04-24T06:11:54.792Z,14.40
2019-04-24T06:14:01.774Z,14.60
2019-04-24T06:16:58.109Z,14.70
2019-04-24T06:19:19.532Z,14.80
2019-04-24T06:27:07.596Z,15.20
2019-04-24T06:34:42.129Z,15.50
2019-04-24T06:37:33.526Z,15.50
2019-04-24T06:40:17.460Z,15.60
2019-04-24T07:00:50.162Z,16.50
2019-04-24T07:09:06.454Z,16.80
2019-04-24T07:14:27.635Z,17.20
2019-04-24T07:17:20.033Z,17.50
2019-04-24T07:19:47.162Z,17.90
2019-04-24T07:22:18.904Z,18.30
2019-04-24T07:24:59.282Z,18.60
2019-04-24T07:27:47.170Z,18.90
2019-04-24T07:30:04.311Z,19.20
2019-04-24T07:35:24.960Z,19.40
2019-04-24T07:38:00.986Z,19.50
2019-04-24T07:40:28.025Z,19.50
2019-04-24T07:43:07.424Z,19.70
2019-04-24T07:45:53.253Z,19.90
2019-04-24T07:48:10.380Z,20.40
2019-04-24T07:50:59.437Z,20.80
2019-04-24T07:53:42.854Z,21.00
2019-04-24T07:56:26.947Z,21.00
2019-04-24T07:59:05.580Z,20.80
2019-04-24T08:01:23.235Z,20.90
2019-04-24T08:04:02.088Z,21.10
2019-04-24T08:06:32.416Z,21.30
2019-04-24T08:09:45.148Z,21.30
2019-04-24T08:11:59.415Z,21.50
2019-04-24T08:14:42.623Z,21.60
2019-04-24T08:16:59.615Z,21.50
2019-04-24T08:19:54.384Z,21.80
2019-04-24T08:22:10.819Z,22.10
2019-04-24T08:25:00.886Z,22.20
2019-04-24T08:27:28.299Z,22.40
2019-04-24T08:29:53.517Z,22.70
2019-04-24T08:34:52.218Z,23.40
2019-04-24T08:37:46.272Z,23.70
2019-04-24T08:40:20.300Z,24.00
2019-04-24T08:45:21.654Z,24.20
2019-04-24T08:48:12.601Z,24.30
2019-04-24T09:01:00.204Z,24.90
2019-04-24T09:03:44.728Z,24.70
2019-04-24T09:11:50.968Z,25.20
2019-04-24T09:16:55.239Z,26.30
2019-04-24T09:19:43.395Z,26.20
2019-04-24T09:22:00.434Z,26.30
2019-04-24T09:35:43.612Z,26.80
2019-04-24T09:38:04.601Z,27.00
2019-04-24T09:46:00.667Z,28.20
2019-04-24T09:51:06.422Z,27.50
2019-04-24T09:56:02.225Z,28.40
2019-04-24T09:59:04.610Z,28.90
2019-04-24T10:01:37.336Z,29.20
2019-04-24T10:04:21.459Z,29.60
2019-04-24T10:14:36.082Z,31.50
2019-04-24T10:17:04.760Z,31.40
2019-04-24T10:22:19.185Z,31.40
2019-04-24T10:25:00.543Z,30.40
2019-04-24T10:27:22.625Z,31.10
2019-04-24T10:29:59.839Z,30.80
2019-04-24T10:32:45.083Z,30.20
2019-04-24T10:35:39.390Z,29.80
2019-04-24T11:05:40.870Z,32.80
2019-04-24T11:13:22.356Z,32.70
2019-04-24T11:16:24.580Z,33.50
2019-04-24T11:24:25.581Z,34.00
2019-04-24T11:27:13.927Z,34.50
2019-04-24T11:30:02.130Z,34.30
2019-04-24T11:37:47.212Z,33.20
2019-04-24T11:40:44.223Z,32.80
2019-04-24T11:42:57.701Z,33.00
2019-04-24T11:45:47.449Z,32.80
2019-04-24T11:48:47.950Z,32.40
2019-04-24T11:51:40.170Z,32.40
2019-04-24T11:54:09.552Z,32.30
2019-04-24T11:57:20.050Z,32.80
2019-04-24T11:59:03.859Z,32.20
2019-04-24T12:02:05.219Z,32.50
2019-04-24T12:07:09.985Z,33.20
2019-04-24T12:10:04.770Z,34.50
2019-04-24T12:12:16.306Z,34.20
2019-04-24T12:14:52.843Z,34.00
2019-04-24T12:17:41.742Z,33.40
2019-04-24T12:20:44.644Z,33.40
2019-04-24T12:22:53.709Z,33.50
2019-04-24T12:25:34.763Z,33.60
2019-04-24T12:27:59.091Z,32.50
2019-04-24T12:30:41.903Z,32.20
2019-04-24T12:32:59.769Z,32.30
2019-04-24T12:35:31.696Z,32.30
2019-04-24T12:38:12.371Z,33.10
2019-04-24T12:41:05.682Z,33.30
2019-04-24T12:48:59.703Z,33.40
2019-04-24T12:57:09.392Z,30.50
2019-04-24T13:00:03.262Z,30.90
2019-04-24T13:05:09.017Z,33.60
2019-04-24T13:08:00.239Z,33.40
2019-04-24T13:10:42.030Z,32.80
2019-04-24T13:13:12.974Z,31.90
2019-04-24T13:18:38.001Z,31.90
2019-04-24T13:20:40.469Z,31.10
2019-04-24T13:23:18.009Z,30.40
2019-04-24T13:26:32.697Z,30.40
2019-04-24T13:29:15.615Z,32.10
2019-04-24T13:32:05.022Z,33.10
2019-04-24T13:34:54.134Z,32.60
2019-04-24T13:37:26.373Z,31.10
2019-04-24T13:45:18.813Z,30.80
2019-04-24T13:50:37.973Z,31.20
2019-04-24T13:53:34.455Z,31.60
2019-04-24T14:01:29.139Z,33.00
2019-04-24T14:04:06.449Z,33.70
2019-04-24T14:09:11.112Z,33.50
2019-04-24T14:16:42.223Z,31.70
2019-04-24T14:21:56.043Z,32.30
2019-04-24T14:24:57.836Z,32.00
2019-04-24T14:27:17.217Z,32.20
2019-04-24T14:29:42.079Z,30.40
2019-04-24T14:32:21.510Z,29.80
2019-04-24T14:35:00.311Z,29.20
2019-04-24T14:40:04.024Z,28.40
2019-04-24T14:42:24.611Z,28.00
2019-04-24T14:45:18.858Z,28.30
2019-04-24T14:52:38.027Z,26.90
2019-04-24T14:55:30.996Z,26.90
2019-04-24T15:03:07.666Z,26.20
2019-04-24T15:05:51.962Z,26.10
2019-04-24T15:08:19.137Z,26.10
2019-04-24T15:10:58.209Z,26.30
2019-04-24T15:13:36.508Z,26.30
2019-04-24T15:18:50.763Z,26.30
2019-04-24T15:21:07.399Z,26.40
2019-04-24T15:24:14.220Z,26.60
2019-04-24T15:29:09.001Z,26.60
2019-04-24T15:31:20.335Z,26.90
2019-04-24T15:36:25.606Z,27.60
2019-04-24T15:39:15.533Z,27.60
2019-04-24T15:42:02.240Z,27.40
2019-04-24T15:44:25.496Z,27.00
2019-04-24T15:47:09.268Z,26.80
2019-04-24T15:51:35.178Z,26.50
2019-04-24T15:54:03.801Z,26.40
2019-04-24T15:56:34.892Z,26.10
2019-04-24T15:59:36.604Z,25.90
2019-04-24T16:02:21.252Z,25.80
2019-04-24T16:04:54.188Z,25.60
2019-04-24T16:06:54.388Z,25.40
2019-04-24T16:09:28.791Z,25.30
2019-04-24T16:11:59.570Z,25.20
2019-04-24T16:14:53.079Z,25.20
2019-04-24T16:17:37.263Z,25.10
2019-04-24T16:20:10.512Z,25.20
2019-04-24T16:28:04.863Z,25.00
2019-04-24T16:30:13.906Z,24.90
2019-04-24T16:33:09.653Z,24.90
2019-04-24T16:38:11.418Z,24.80
2019-04-24T16:41:05.791Z,24.80
2019-04-24T16:53:39.859Z,24.10
2019-04-24T16:56:13.834Z,24.00
2019-04-24T16:58:44.450Z,24.00
2019-04-24T17:01:33.279Z,23.90
2019-04-24T17:11:47.669Z,23.60
2019-04-24T17:14:08.593Z,23.60
2019-04-24T17:21:56.301Z,23.50
2019-04-24T17:27:01.111Z,23.30
2019-04-24T17:29:38.390Z,23.20
2019-04-24T17:32:02.405Z,23.00
2019-04-24T17:34:31.617Z,23.00
2019-04-24T17:36:33.589Z,22.80
2019-04-24T17:39:09.445Z,22.70
2019-04-24T17:41:53.620Z,22.60
2019-04-24T17:44:50.547Z,22.50
2019-04-24T17:52:38.215Z,22.20
2019-04-24T17:54:54.930Z,22.00
2019-04-24T17:59:41.153Z,21.80
2019-04-24T18:02:13.782Z,21.60
2019-04-24T18:04:47.055Z,21.50
2019-04-24T18:07:17.149Z,21.40
2019-04-24T18:09:53.082Z,21.30
2019-04-24T18:12:23.245Z,21.20
2019-04-24T18:14:55.319Z,21.00
2019-04-24T18:17:27.297Z,20.90
2019-04-24T18:20:01.424Z,20.70
2019-04-24T18:22:40.227Z,20.40
2019-04-24T18:25:16.368Z,20.10
2019-04-24T18:27:53.798Z,19.90
2019-04-24T18:30:30.664Z,19.70
2019-04-24T18:33:01.299Z,19.60
2019-04-24T18:35:32.276Z,19.50
2019-04-24T18:38:06.737Z,19.30
2019-04-24T18:40:35.149Z,19.20
2019-04-24T18:43:06.633Z,19.00
2019-04-24T18:45:36.717Z,18.90
2019-04-24T18:48:06.805Z,18.80
2019-04-24T18:50:36.881Z,18.70
2019-04-24T18:53:07.027Z,18.50
2019-04-24T18:55:37.121Z,18.40
2019-04-24T18:58:07.529Z,18.40
2019-04-24T19:00:37.673Z,18.40
2019-04-24T19:03:07.935Z,18.50
2019-04-24T19:05:41.534Z,18.60
2019-04-24T19:08:15.774Z,18.60
2019-04-24T19:10:45.925Z,18.70
2019-04-24T19:13:16.202Z,18.80
2019-04-24T19:15:48.268Z,18.90
2019-04-24T19:18:22.390Z,18.90
2019-04-24T19:20:52.541Z,18.90
2019-04-24T19:23:29.469Z,19.00
2019-04-24T19:26:13.580Z,19.00
2019-04-24T19:28:46.361Z,19.00
2019-04-24T19:31:16.695Z,18.90
2019-04-24T19:33:56.621Z,18.60
2019-04-24T19:36:28.703Z,18.10
2019-04-24T19:39:01.991Z,17.70
2019-04-24T19:41:33.660Z,17.10
2019-04-24T19:44:03.885Z,16.40
2019-04-24T19:46:34.965Z,15.80
2019-04-24T19:49:05.085Z,15.10
2019-04-24T19:51:35.161Z,14.60
2019-04-24T19:54:07.177Z,14.20
2019-04-24T19:56:37.293Z,13.90
2019-04-24T19:59:08.326Z,13.70
2019-04-24T20:01:38.485Z,13.40
2019-04-24T20:04:08.878Z,13.20
2019-04-24T20:06:41.187Z,12.90
2019-04-24T20:09:28.238Z,12.80
2019-04-24T20:12:06.097Z,12.70
2019-04-24T20:14:36.173Z,12.50
2019-04-24T20:17:06.549Z,12.50
2019-04-24T20:19:36.625Z,12.40
2019-04-24T20:22:06.723Z,12.30
2019-04-24T20:24:36.801Z,12.20
2019-04-24T20:27:10.221Z,12.20
2019-04-24T20:29:42.232Z,12.10
2019-04-24T20:32:12.568Z,12.10
2019-04-24T20:34:51.683Z,12.00
2019-04-24T20:37:22.630Z,12.00
2019-04-24T20:39:54.676Z,11.90
2019-04-24T20:42:26.743Z,11.90
2019-04-24T20:44:57.773Z,11.80
2019-04-24T20:47:27.857Z,11.70
2019-04-24T20:49:59.844Z,11.70
2019-04-24T20:52:32.067Z,11.80
2019-04-24T20:55:02.603Z,11.70
2019-04-24T20:57:32.765Z,11.70
2019-04-24T21:00:11.559Z,11.60
2019-04-24T21:02:44.921Z,11.60
2019-04-24T21:05:17.455Z,11.50
2019-04-24T21:07:52.477Z,11.60
2019-04-24T21:10:24.209Z,11.50
2019-04-24T21:12:54.306Z,11.50
2019-04-24T21:15:26.636Z,11.50
2019-04-24T21:17:57.681Z,11.50
2019-04-24T21:20:28.175Z,11.40
2019-04-24T21:22:58.333Z,11.40
2019-04-24T21:25:28.537Z,11.40
2019-04-24T21:27:59.793Z,11.40
2019-04-24T21:30:29.979Z,11.40
2019-04-24T21:33:03.239Z,11.30
2019-04-24T21:35:33.813Z,11.20
2019-04-24T21:38:05.041Z,11.10
2019-04-24T21:40:35.153Z,11.10
2019-04-24T21:43:05.317Z,11.00
2019-04-24T21:45:35.373Z,10.90
2019-04-24T21:48:05.533Z,10.90
2019-04-24T21:50:35.646Z,10.80
2019-04-24T21:53:05.829Z,10.80
2019-04-24T21:55:35.936Z,10.80
2019-04-24T21:58:06.973Z,10.80
2019-04-24T22:00:46.830Z,10.70
2019-04-24T22:03:47.541Z,10.70
2019-04-24T22:06:36.165Z,10.60
2019-04-24T22:09:11.574Z,10.40
2019-04-24T22:11:41.826Z,10.30
2019-04-24T22:14:13.729Z,10.20
2019-04-24T22:16:44.089Z,10.10
2019-04-24T22:19:16.433Z,10.00
2019-04-24T22:21:57.117Z,9.80
2019-04-24T22:24:44.366Z,9.70
2019-04-24T22:27:17.093Z,9.80
2019-04-24T22:29:47.166Z,9.60
2019-04-24T22:32:22.037Z,9.50
2019-04-24T22:34:53.801Z,9.50
2019-04-24T22:37:23.914Z,9.40
2019-04-24T22:39:56.199Z,9.30
2019-04-24T22:42:26.345Z,9.30
2019-04-24T22:44:56.429Z,9.20
2019-04-24T22:47:26.526Z,9.20
2019-04-24T22:49:56.614Z,9.10
2019-04-24T22:52:32.623Z,9.10
2019-04-24T22:55:02.131Z,9.00
2019-04-24T22:57:34.072Z,9.00
2019-04-24T23:00:10.066Z,9.00
2019-04-24T23:02:40.166Z,8.90
2019-04-24T23:05:11.648Z,8.80
2019-04-24T23:07:50.718Z,8.80
2019-04-24T23:10:33.485Z,8.90
2019-04-24T23:12:53.914Z,9.00
2019-04-24T23:15:25.199Z,9.00
2019-04-24T23:17:55.530Z,9.10
2019-04-24T23:20:27.254Z,9.20
2019-04-24T23:22:58.989Z,9.30
2019-04-24T23:25:42.194Z,9.30
2019-04-24T23:28:22.681Z,9.40
2019-04-24T23:30:55.385Z,9.40
2019-04-24T23:33:28.067Z,9.30
2019-04-24T23:35:58.142Z,9.30
2019-04-24T23:38:46.314Z,9.20
2019-04-24T23:41:22.528Z,9.10
2019-04-24T23:43:55.666Z,9.00
2019-04-24T23:46:25.818Z,8.90
2019-04-24T23:48:55.894Z,8.80
2019-04-24T23:51:32.066Z,8.70
2019-04-24T23:54:03.050Z,8.60
2019-04-24T23:56:33.131Z,8.50
2019-04-24T23:59:03.646Z,8.40
